Time;durP1;ratioP1;P1;durP2;ratioP2;P2;SDS_P1;SDS_P2;PMS_P1;PMS_P2;Temp;Humidity;BMP_temperature;BMP_pressure;BME280_temperature;BME280_humidity;BME280_pressure;Samples;Min_cycle;Max_cycle;Signal;HPM_P1;HPM_P2
2022/06/14 00:03:34;;;;;;;7.40;3.20;;;;;;;12.21;78.39;100399.55;105228;1281;25405;-74
2022/06/14 00:06:08;;;;;;;4.60;2.90;;;;;;;12.18;78.29;100399.79;105423;1281;22617;-75
2022/06/14 00:08:36;;;;;;;8.50;3.60;;;;;;;12.18;78.35;100401.73;105345;1281;24241;-87
2022/06/14 00:11:12;;;;;;;4.70;2.90;;;;;;;12.20;78.41;100404.16;105451;1281;25385;-78
2022/06/14 00:13:40;;;;;;;5.00;2.90;;;;;;;12.19;78.19;100400.30;105695;1274;25485;-76
2022/06/14 00:16:08;;;;;;;4.60;3.20;;;;;;;12.21;78.00;100400.98;106018;1273;25416;-75
2022/06/14 00:18:35;;;;;;;3.90;2.90;;;;;;;12.21;77.86;100402.91;106142;1274;22685;-76
2022/06/14 00:21:02;;;;;;;5.50;3.50;;;;;;;12.22;77.75;100406.95;105991;1275;24130;-74
2022/06/14 00:23:30;;;;;;;6.60;3.20;;;;;;;12.24;77.50;100409.05;105837;1276;22557;-73
2022/06/14 00:25:58;;;;;;;5.20;3.20;;;;;;;12.19;77.17;100409.48;106015;1275;22553;-75
2022/06/14 00:28:30;;;;;;;4.10;3.20;;;;;;;12.15;77.09;100412.17;106065;1275;24086;-74
2022/06/14 00:31:03;;;;;;;6.00;2.90;;;;;;;12.08;77.04;100412.98;106133;1274;25002;-73
2022/06/14 00:33:31;;;;;;;5.10;2.70;;;;;;;12.06;77.12;100412.64;106106;1274;22535;-71
2022/06/14 00:36:10;;;;;;;3.50;2.50;;;;;;;12.05;76.83;100411.08;106141;1274;22855;-75
2022/06/14 00:38:38;;;;;;;3.50;2.40;;;;;;;12.04;76.56;100413.90;105978;1274;23200;-86
2022/06/14 00:41:05;;;;;;;4.60;2.60;;;;;;;12.00;76.32;100414.84;106004;1276;23919;-73
2022/06/14 00:43:33;;;;;;;6.90;2.60;;;;;;;11.95;75.98;100415.45;106152;1273;22554;-73
2022/06/14 00:46:06;;;;;;;6.80;3.00;;;;;;;11.92;75.88;100418.83;106094;1273;25402;-74
2022/06/14 00:48:34;;;;;;;7.70;2.60;;;;;;;11.92;75.69;100419.36;106040;1275;25257;-74
2022/06/14 00:51:13;;;;;;;5.00;2.60;;;;;;;11.91;75.68;100424.50;106182;1273;22633;-76
2022/06/14 00:54:03;;;;;;;4.90;2.70;;;;;;;11.87;75.38;100421.02;106014;1274;22711;-74
2022/06/14 00:56:45;;;;;;;4.80;2.80;;;;;;;11.86;75.28;100424.73;106033;1274;22529;-77
2022/06/14 00:59:21;;;;;;;5.80;2.60;;;;;;;11.84;75.25;100428.83;106007;1275;22708;-75
2022/06/14 01:01:51;;;;;;;7.60;3.10;;;;;;;11.83;75.25;100424.26;106157;1274;24293;-77
2022/06/14 01:04:24;;;;;;;3.70;2.70;;;;;;;11.81;75.03;100426.39;106006;1277;25235;-78
2022/06/14 01:06:54;;;;;;;2.90;2.40;;;;;;;11.79;75.19;100427.84;106239;1274;22556;-73
2022/06/14 01:09:38;;;;;;;4.40;2.70;;;;;;;11.76;74.97;100427.54;106178;1274;24265;-77
2022/06/14 01:12:10;;;;;;;4.30;3.10;;;;;;;11.72;74.94;100428.98;106084;1278;22709;-76
2022/06/14 01:14:49;;;;;;;5.20;2.80;;;;;;;11.69;75.14;100428.84;106008;1278;25307;-76
2022/06/14 01:17:18;;;;;;;7.10;3.10;;;;;;;11.71;75.35;100430.77;105998;1278;22706;-75
2022/06/14 01:19:45;;;;;;;6.00;3.40;;;;;;;11.69;75.23;100429.73;106228;1277;25353;-75
2022/06/14 01:22:12;;;;;;;6.00;3.80;;;;;;;11.65;75.39;100433.48;105853;1277;22530;-74
2022/06/14 01:24:41;;;;;;;9.80;4.20;;;;;;;11.61;75.49;100434.42;105920;1277;26573;-75
2022/06/14 01:27:12;;;;;;;5.80;3.40;;;;;;;11.57;75.55;100440.30;105997;1277;24094;-76
2022/06/14 01:29:43;;;;;;;9.00;2.90;;;;;;;11.47;75.63;100438.64;105877;1274;25256;-75
2022/06/14 01:32:13;;;;;;;6.80;3.30;;;;;;;11.45;75.99;100437.25;106041;1274;25362;-73
2022/06/14 01:34:49;;;;;;;6.60;3.10;;;;;;;11.48;76.00;100435.28;105899;1274;22641;-76
2022/06/14 01:37:15;;;;;;;5.00;3.40;;;;;;;11.49;75.95;100438.43;105862;1275;22679;-76
2022/06/14 01:39:43;;;;;;;4.20;3.20;;;;;;;11.49;75.87;100440.04;105984;1275;22534;-86
2022/06/14 01:42:13;;;;;;;5.60;2.90;;;;;;;11.45;75.76;100439.56;106034;1274;22535;-75
2022/06/14 01:44:52;;;;;;;4.60;3.00;;;;;;;11.42;75.67;100438.89;105951;1274;24288;-76
2022/06/14 01:47:21;;;;;;;5.60;2.90;;;;;;;11.40;75.71;100444.72;105934;1274;25255;-77
2022/06/14 01:53:25;;;;;;;7.20;3.70;;;;;;;11.36;75.72;100445.30;106082;1274;22562;-72
2022/06/14 01:56:07;;;;;;;5.10;3.10;;;;;;;11.33;75.48;100448.52;106016;1274;25252;-75
2022/06/14 01:58:57;;;;;;;5.90;3.40;;;;;;;11.32;75.61;100447.98;105962;1274;22609;-78
2022/06/14 02:01:36;;;;;;;7.70;2.80;;;;;;;11.32;75.47;100448.52;105911;1274;25590;-76
2022/06/14 02:04:41;;;;;;;5.80;3.10;;;;;;;11.30;75.34;100449.25;105639;1281;23970;-74
2022/06/14 02:07:28;;;;;;;4.10;2.70;;;;;;;11.27;75.35;100449.62;105666;1280;25217;-77
2022/06/14 02:10:12;;;;;;;4.00;2.80;;;;;;;11.24;75.29;100454.42;105716;1279;22843;-73
2022/06/14 02:12:39;;;;;;;6.80;2.80;;;;;;;11.23;75.34;100456.38;105761;1281;22695;-72
2022/06/14 02:15:17;;;;;;;3.90;2.50;;;;;;;11.20;75.44;100456.58;105738;1280;22550;-73
2022/06/14 02:17:56;;;;;;;6.10;3.00;;;;;;;11.20;75.31;100457.80;105234;1284;22775;-70
2022/06/14 02:20:28;;;;;;;5.90;3.00;;;;;;;11.19;75.21;100464.70;105013;1283;22540;-71
2022/06/14 02:23:03;;;;;;;7.20;3.00;;;;;;;11.10;75.29;100463.91;105972;1274;25345;-70
2022/06/14 02:25:46;;;;;;;7.80;2.90;;;;;;;11.06;75.25;100464.29;105830;1274;24236;-69
2022/06/14 02:28:32;;;;;;;4.50;2.70;;;;;;;11.03;75.41;100465.39;106015;1274;22554;-72
2022/06/14 02:31:05;;;;;;;6.20;2.60;;;;;;;11.06;75.48;100470.48;105922;1274;22563;-70
2022/06/14 02:33:37;;;;;;;6.30;2.80;;;;;;;11.06;75.39;100473.30;105997;1274;25487;-73
2022/06/14 02:36:19;;;;;;;5.20;2.90;;;;;;;11.08;75.52;100472.39;105991;1274;25425;-71
2022/06/14 02:39:02;;;;;;;8.70;3.40;;;;;;;11.05;75.32;100470.30;105952;1274;22990;-73
2022/06/14 02:41:47;;;;;;;5.80;2.60;;;;;;;11.04;75.49;100472.27;105882;1274;22851;-71
2022/06/14 02:44:38;;;;;;;6.90;3.20;;;;;;;11.04;75.50;100467.84;106028;1274;22669;-70
2022/06/14 02:47:39;;;;;;;6.20;3.30;;;;;;;11.07;75.44;100472.23;105949;1274;22560;-72
2022/06/14 02:50:51;;;;;;;6.30;2.70;;;;;;;11.03;75.38;100472.44;105927;1274;25356;-70
2022/06/14 02:53:28;;;;;;;7.10;2.90;;;;;;;11.00;75.49;100471.41;105226;1281;22875;-70
2022/06/14 02:56:14;;;;;;;7.60;3.00;;;;;;;11.01;75.45;100474.04;105279;1281;23334;-71
2022/06/14 02:58:40;;;;;;;3.90;2.50;;;;;;;11.00;75.51;100472.64;105158;1281;24288;-68
2022/06/14 03:01:14;;;;;;;3.70;2.70;;;;;;;10.98;75.60;100477.08;105131;1281;22770;-73
2022/06/14 03:03:59;;;;;;;5.30;2.60;;;;;;;10.98;75.51;100474.77;105260;1281;25401;-73
2022/06/14 03:06:30;;;;;;;7.10;3.00;;;;;;;10.96;75.53;100479.02;105267;1281;22563;-73
2022/06/14 03:09:23;;;;;;;6.80;2.90;;;;;;;10.97;75.67;100479.20;105345;1281;24360;-72
2022/06/14 03:12:08;;;;;;;6.40;3.30;;;;;;;10.98;75.80;100479.71;105313;1281;23943;-74
2022/06/14 03:14:46;;;;;;;6.70;3.00;;;;;;;11.00;75.71;100480.05;105263;1280;22595;-77
2022/06/14 03:17:27;;;;;;;8.50;3.20;;;;;;;10.99;75.82;100484.11;105625;1281;22560;-73
2022/06/14 03:19:56;;;;;;;4.60;3.10;;;;;;;10.96;75.71;100487.30;105635;1281;24269;-73
2022/06/14 03:22:48;;;;;;;8.90;3.20;;;;;;;10.94;75.71;100489.10;105473;1281;24254;-73
2022/06/14 03:25:23;;;;;;;5.10;2.90;;;;;;;10.95;76.02;100488.55;105763;1274;22586;-78
2022/06/14 03:28:08;;;;;;;4.90;3.60;;;;;;;10.97;75.89;100494.34;105985;1274;25251;-83
2022/06/14 03:30:49;;;;;;;5.00;2.90;;;;;;;10.95;75.97;100491.01;106066;1274;24270;-76
2022/06/14 03:33:28;;;;;;;8.40;3.50;;;;;;;10.95;76.02;100496.48;106509;1273;23930;-73
2022/06/14 03:35:55;;;;;;;5.10;3.30;;;;;;;10.98;76.17;100496.10;106194;1274;22550;-71
2022/06/14 03:38:29;;;;;;;7.00;3.00;;;;;;;11.04;76.08;100499.05;106004;1274;25249;-73
2022/06/14 03:40:56;;;;;;;5.90;3.10;;;;;;;11.02;75.92;100502.39;105983;1273;22698;-71
2022/06/14 03:43:22;;;;;;;4.00;2.90;;;;;;;11.02;75.89;100501.87;106003;1275;25255;-69
2022/06/14 03:46:10;;;;;;;4.00;2.60;;;;;;;11.04;75.75;100508.73;105975;1276;24304;-73
2022/06/14 03:48:41;;;;;;;5.10;3.00;;;;;;;11.05;75.91;100511.55;105872;1274;25252;-66
2022/06/14 03:51:18;;;;;;;5.00;3.20;;;;;;;11.04;75.87;100515.77;105933;1274;22541;-67
2022/06/14 03:54:13;;;;;;;5.10;3.50;;;;;;;11.03;76.04;100509.80;105968;1274;22701;-67
2022/06/14 03:57:11;;;;;;;5.10;3.60;;;;;;;11.05;76.21;100513.48;105936;1274;22571;-69
2022/06/14 03:59:57;;;;;;;5.30;3.20;;;;;;;11.07;76.13;100519.29;105929;1274;22589;-67
2022/06/14 04:02:54;;;;;;;5.90;3.30;;;;;;;11.11;76.29;100511.31;105690;1274;24063;-69
2022/06/14 04:05:46;;;;;;;5.90;3.20;;;;;;;11.10;76.26;100516.25;105703;1274;22775;-67
2022/06/14 04:08:20;;;;;;;5.40;3.20;;;;;;;11.11;76.26;100518.35;105749;1274;22527;-70
2022/06/14 04:11:25;;;;;;;6.00;3.30;;;;;;;11.16;76.45;100519.02;105847;1274;22557;-70
2022/06/14 04:14:19;;;;;;;8.00;3.70;;;;;;;11.21;76.34;100512.80;105959;1274;25425;-73
2022/06/14 04:17:07;;;;;;;5.80;3.60;;;;;;;11.31;76.37;100524.52;105897;1273;22544;-69
2022/06/14 04:20:05;;;;;;;4.40;3.50;;;;;;;11.33;76.33;100517.27;105824;1276;22555;-70
2022/06/14 04:22:51;;;;;;;6.20;3.10;;;;;;;11.34;76.15;100519.91;106068;1274;25412;-81
2022/06/14 04:25:27;;;;;;;5.50;3.00;;;;;;;11.40;76.18;100518.25;106429;1273;22611;-76
2022/06/14 04:28:25;;;;;;;5.40;3.30;;;;;;;11.48;76.16;100516.92;106115;1274;24447;-73
2022/06/14 04:31:00;;;;;;;8.20;3.90;;;;;;;11.53;76.10;100520.06;106003;1274;25598;-72
2022/06/14 04:33:43;;;;;;;5.50;3.40;;;;;;;11.54;76.00;100522.87;105950;1275;24815;-75
2022/06/14 04:36:22;;;;;;;5.50;3.30;;;;;;;11.58;76.04;100521.42;106058;1273;25248;-75
2022/06/14 04:38:56;;;;;;;9.00;3.20;;;;;;;11.61;76.10;100517.84;106191;1274;25355;-76
2022/06/14 04:41:31;;;;;;;7.10;2.70;;;;;;;11.65;76.03;100518.52;106203;1274;22698;-75
2022/06/14 04:44:07;;;;;;;9.60;3.60;;;;;;;11.68;76.07;100523.77;106018;1274;22537;-75
2022/06/14 04:46:48;;;;;;;6.20;3.70;;;;;;;11.70;75.93;100523.39;106021;1274;24227;-75
2022/06/14 04:49:23;;;;;;;10.00;4.60;;;;;;;11.72;75.83;100526.71;106029;1274;25275;-75
2022/06/14 04:52:14;;;;;;;6.40;3.20;;;;;;;11.76;75.86;100525.63;106239;1274;22580;-70
2022/06/14 04:55:10;;;;;;;5.40;3.30;;;;;;;11.82;75.91;100524.85;106046;1274;22601;-77
2022/06/14 04:57:44;;;;;;;6.30;3.90;;;;;;;11.90;76.16;100523.52;106070;1273;22748;-74
2022/06/14 05:00:27;;;;;;;5.60;3.70;;;;;;;11.97;75.77;100528.89;105853;1275;24325;-73
2022/06/14 05:03:21;;;;;;;5.70;3.00;;;;;;;11.97;75.76;100527.48;105923;1273;22700;-73
2022/06/14 05:06:01;;;;;;;6.50;3.60;;;;;;;12.04;75.71;100530.39;105887;1275;22579;-74
2022/06/14 05:08:34;;;;;;;6.70;4.00;;;;;;;12.13;75.67;100529.77;106008;1274;22558;-72
2022/06/14 05:11:42;;;;;;;5.90;4.10;;;;;;;12.17;75.36;100530.98;106006;1274;23192;-74
2022/06/14 05:14:23;;;;;;;6.50;4.10;;;;;;;12.22;75.22;100535.15;106099;1274;22531;-73
2022/06/14 05:16:57;;;;;;;4.50;3.20;;;;;;;12.23;75.14;100539.89;105955;1274;23945;-73
2022/06/14 05:19:34;;;;;;;6.80;3.60;;;;;;;12.26;75.16;100539.14;106064;1274;22705;-72
2022/06/14 05:22:10;;;;;;;5.20;3.70;;;;;;;12.31;75.12;100535.53;105967;1276;22703;-76
2022/06/14 05:24:38;;;;;;;5.00;3.30;;;;;;;12.32;74.83;100531.64;106055;1274;24306;-74
2022/06/14 05:27:11;;;;;;;3.40;2.60;;;;;;;12.33;74.71;100533.20;105723;1279;25486;-74
2022/06/14 05:29:56;;;;;;;7.20;3.20;;;;;;;12.36;74.66;100534.05;105680;1279;22578;-70
2022/06/14 05:32:49;;;;;;;5.90;3.60;;;;;;;12.40;74.51;100525.36;105759;1279;25257;-74
2022/06/14 05:35:23;;;;;;;4.30;3.00;;;;;;;12.49;74.71;100527.88;106431;1279;24241;-75
2022/06/14 05:38:10;;;;;;;8.60;2.80;;;;;;;12.57;74.30;100525.63;105295;1279;25380;-76
2022/06/14 05:41:11;;;;;;;6.00;2.50;;;;;;;12.59;74.04;100523.66;107686;1278;22530;-92
2022/06/14 05:44:06;;;;;;;4.60;2.50;;;;;;;12.65;74.27;100523.38;107440;1278;22599;-90
2022/06/14 05:46:48;;;;;;;6.40;2.80;;;;;;;12.77;74.14;100521.43;107846;1275;22593;-90
2022/06/14 05:49:22;;;;;;;7.50;2.50;;;;;;;12.87;73.83;100524.62;108502;1273;22553;-90
2022/06/14 05:52:27;;;;;;;5.00;2.80;;;;;;;12.92;73.55;100527.20;108601;1274;22769;-88
2022/06/14 05:55:22;;;;;;;3.50;2.10;;;;;;;13.00;73.40;100533.43;108165;1279;22695;-89
2022/06/14 05:58:00;;;;;;;2.70;1.90;;;;;;;13.05;73.23;100539.00;108600;1279;23769;-91
2022/06/14 06:00:30;;;;;;;3.20;2.20;;;;;;;13.10;72.92;100533.96;108986;1279;22574;-91
2022/06/14 06:03:11;;;;;;;5.80;2.40;;;;;;;13.19;72.69;100537.52;108949;1279;22813;-90
2022/06/14 06:05:47;;;;;;;6.70;2.00;;;;;;;13.24;72.31;100534.45;109128;1279;23739;-91
2022/06/14 06:08:33;;;;;;;;;;;;;;;13.30;72.27;100538.75;109235;1279;22676;-91
2022/06/14 06:11:25;;;;;;;3.90;2.10;;;;;;;13.38;71.90;100540.37;107731;1280;22803;-91
2022/06/14 06:14:16;;;;;;;3.90;2.00;;;;;;;13.37;71.75;100542.68;106483;1287;24356;-90
2022/06/14 06:19:57;;;;;;;2.40;1.70;;;;;;;13.46;71.66;100543.06;105616;1285;22549;-91
2022/06/14 06:22:31;;;;;;;2.40;1.80;;;;;;;13.48;71.41;100540.54;106868;1285;22573;-90
2022/06/14 06:25:14;;;;;;;5.00;2.60;;;;;;;13.49;71.25;100545.31;107658;1284;25219;-91
2022/06/14 06:27:45;;;;;;;2.90;1.80;;;;;;;13.54;71.28;100541.01;107045;1284;22570;-90
2022/06/14 06:30:15;;;;;;;4.10;1.90;;;;;;;13.58;71.32;100545.70;107075;1284;25263;-91
2022/06/14 06:32:44;;;;;;;4.90;2.00;;;;;;;13.63;71.20;100541.01;107969;1277;22903;-91
2022/06/14 06:35:12;;;;;;;3.90;2.00;;;;;;;13.67;71.06;100542.52;108559;1276;23046;-90
2022/06/14 06:37:59;;;;;;;4.50;1.70;;;;;;;13.72;70.95;100541.02;107916;1277;22556;-90
2022/06/14 06:40:26;;;;;;;5.20;2.10;;;;;;;13.75;70.47;100541.11;107446;1277;26638;-92
2022/06/14 06:43:05;;;;;;;3.00;1.70;;;;;;;13.80;70.36;100542.98;107224;1277;22549;-92
2022/06/14 06:45:40;;;;;;;7.40;1.80;;;;;;;13.86;70.00;100539.85;106290;1278;26145;-90
2022/06/14 06:48:13;;;;;;;3.80;1.90;;;;;;;13.88;69.58;100542.10;106292;1276;25532;-91
2022/06/14 06:50:45;;;;;;;3.20;1.30;;;;;;;13.95;69.14;100548.17;106395;1274;22536;-89
2022/06/14 06:53:17;;;;;;;3.90;1.80;;;;;;;14.02;68.22;100543.23;106829;1273;23009;-92
2022/06/14 06:55:50;;;;;;;3.90;1.70;;;;;;;14.00;68.41;100541.48;106862;1273;27144;-92
2022/06/14 06:58:35;;;;;;;4.00;1.70;;;;;;;14.12;68.51;100545.49;106803;1273;24238;-92
2022/06/14 07:01:19;;;;;;;3.10;1.90;;;;;;;14.28;69.11;100552.59;106678;1274;24167;-92
2022/06/14 07:04:15;;;;;;;6.10;2.00;;;;;;;14.47;68.50;100552.54;105951;1278;24296;-92
2022/06/14 07:06:56;;;;;;;2.30;1.30;;;;;;;14.60;67.53;100547.29;106213;1278;25441;-91
2022/06/14 07:09:34;;;;;;;4.90;1.70;;;;;;;14.72;67.21;100550.73;106367;1278;25912;-93
2022/06/14 07:12:10;;;;;;;5.70;1.60;;;;;;;14.86;67.34;100547.93;105833;1283;22544;-92
2022/06/14 07:15:00;;;;;;;3.50;1.60;;;;;;;14.97;66.51;100547.33;105779;1284;22587;-89
2022/06/14 07:17:36;;;;;;;3.60;1.60;;;;;;;15.06;65.85;100546.04;106302;1284;26122;-90
2022/06/14 07:20:26;;;;;;;5.20;1.70;;;;;;;15.06;64.49;100547.10;106352;1284;22582;-90
2022/06/14 07:23:02;;;;;;;3.90;1.70;;;;;;;15.06;64.74;100551.17;106263;1279;22700;-92
2022/06/14 07:26:08;;;;;;;3.80;1.60;;;;;;;15.06;64.50;100550.10;106839;1279;22562;-88
2022/06/14 07:28:50;;;;;;;5.10;1.50;;;;;;;15.09;63.92;100547.39;106168;1282;22712;-91
2022/06/14 07:31:34;;;;;;;4.00;1.50;;;;;;;15.19;63.35;100539.13;106042;1284;22559;-90
2022/06/14 07:34:04;;;;;;;4.00;1.60;;;;;;;15.32;63.18;100534.20;106660;1282;22668;-88
2022/06/14 07:36:39;;;;;;;9.80;1.60;;;;;;;15.36;62.37;100536.74;106358;1277;25363;-89
2022/06/14 07:39:17;;;;;;;3.90;1.50;;;;;;;15.37;61.74;100539.91;106643;1278;25542;-90
2022/06/14 07:41:59;;;;;;;1.80;1.10;;;;;;;15.40;62.13;100539.31;107239;1278;22520;-90
2022/06/14 07:44:32;;;;;;;3.20;1.80;;;;;;;15.46;62.35;100536.85;107557;1281;22641;-91
2022/06/14 07:47:16;;;;;;;4.00;1.00;;;;;;;15.50;62.11;100538.32;108210;1274;22525;-91
2022/06/14 07:49:44;;;;;;;3.40;1.10;;;;;;;15.50;61.99;100537.63;108018;1273;23175;-91
2022/06/14 07:52:42;;;;;;;3.80;1.40;;;;;;;15.48;61.79;100540.85;107460;1273;23316;-92
2022/06/14 07:55:19;;;;;;;4.10;1.20;;;;;;;15.54;61.75;100538.20;106659;1279;22553;-89
2022/06/14 07:57:51;;;;;;;3.30;1.20;;;;;;;15.70;60.86;100532.28;106688;1281;22619;-89
2022/06/14 08:03:43;;;;;;;2.90;1.30;;;;;;;15.84;59.76;100528.51;107111;1281;22534;-92
2022/06/14 08:06:18;;;;;;;1.50;1.00;;;;;;;15.83;59.03;100534.75;106753;1281;22503;-91
2022/06/14 08:08:49;;;;;;;3.80;1.40;;;;;;;15.85;59.47;100533.46;106246;1285;22545;-91
2022/06/14 08:11:28;;;;;;;5.60;1.30;;;;;;;15.89;59.20;100538.85;106545;1285;22964;-92
2022/06/14 08:14:03;;;;;;;3.40;1.10;;;;;;;15.93;59.19;100538.92;106567;1281;262717;-93
2022/06/14 08:16:31;;;;;;;3.60;1.50;;;;;;;15.94;58.72;100531.42;107225;1281;22586;-92
2022/06/14 08:19:07;;;;;;;3.80;1.30;;;;;;;15.90;58.74;100534.94;106659;1281;25231;-92
2022/06/14 08:21:51;;;;;;;2.60;1.10;;;;;;;15.83;58.74;100537.95;107000;1281;23091;-93
2022/06/14 08:24:22;;;;;;;2.60;1.30;;;;;;;15.85;58.17;100538.42;107353;1281;22563;-90
2022/06/14 08:27:06;;;;;;;1.90;1.20;;;;;;;15.93;57.33;100536.61;107775;1280;22839;-92
2022/06/14 08:29:42;;;;;;;3.60;1.40;;;;;;;15.97;56.92;100536.48;108708;1281;22694;-89
2022/06/14 08:32:18;;;;;;;3.20;1.40;;;;;;;16.11;56.47;100536.47;108858;1281;22540;-90
2022/06/14 08:35:35;;;;;;;2.70;1.10;;;;;;;16.25;56.57;100534.98;109623;1273;22860;-91
2022/06/14 08:38:28;;;;;;;4.70;1.30;;;;;;;16.43;56.45;100527.85;109681;1273;22641;-90
2022/06/14 08:41:30;;;;;;;3.60;1.70;;;;;;;16.52;55.13;100532.75;109716;1273;22492;-91
2022/06/14 08:44:16;;;;;;;1.80;1.00;;;;;;;16.47;53.73;100532.70;109702;1273;22855;-91
2022/06/14 08:47:02;;;;;;;2.50;1.10;;;;;;;16.61;53.84;100532.98;109845;1273;22610;-92
2022/06/14 08:50:01;;;;;;;3.00;1.10;;;;;;;16.83;54.31;100528.36;109784;1274;22547;-89
2022/06/14 08:52:43;;;;;;;3.60;1.30;;;;;;;16.81;54.34;100526.66;109772;1274;22620;-91
2022/06/14 08:55:23;;;;;;;5.00;1.30;;;;;;;16.71;54.28;100545.65;109668;1274;22543;-91
2022/06/14 08:58:21;;;;;;;4.70;1.50;;;;;;;16.63;54.35;100540.92;109648;1274;22607;-91
2022/06/14 09:01:26;;;;;;;2.60;1.70;;;;;;;16.63;53.89;100542.70;109732;1273;22605;-91
2022/06/14 09:04:34;;;;;;;2.90;1.10;;;;;;;16.64;53.79;100538.95;109251;1279;23154;-91
2022/06/14 09:07:25;;;;;;;2.10;1.30;;;;;;;16.65;53.64;100543.01;109256;1279;22564;-92
2022/06/14 09:10:32;;;;;;;5.20;1.40;;;;;;;16.68;53.37;100539.18;109181;1279;22574;-92
2022/06/14 09:13:24;;;;;;;2.80;2.00;;;;;;;16.62;52.88;100543.96;108902;1279;22485;-93
2022/06/14 09:16:08;;;;;;;2.60;1.30;;;;;;;16.74;52.11;100544.14;108846;1279;22750;-94
2022/06/14 09:19:12;;;;;;;3.00;1.20;;;;;;;16.84;50.92;100538.84;108240;1279;22585;-94
2022/06/14 09:21:42;;;;;;;3.00;1.20;;;;;;;17.09;50.96;100536.58;108143;1279;24449;-93
2022/06/14 09:24:52;;;;;;;3.40;0.80;;;;;;;17.34;51.07;100540.23;108273;1279;22654;-93
2022/06/14 09:27:35;;;;;;;3.10;1.60;;;;;;;17.31;50.59;100536.02;108261;1284;22691;-87
2022/06/14 09:30:29;;;;;;;4.40;1.30;;;;;;;17.35;50.60;100536.63;109061;1277;22556;-93
2022/06/14 09:33:35;;;;;;;2.20;1.00;;;;;;;17.41;50.73;100537.66;108623;1277;22699;-92
2022/06/14 09:36:21;;;;;;;2.60;1.00;;;;;;;17.37;50.76;100541.89;108628;1277;22701;-94
2022/06/14 09:39:03;;;;;;;2.40;1.00;;;;;;;17.26;51.02;100550.27;108732;1277;22933;-92
2022/06/14 09:41:36;;;;;;;2.00;0.90;;;;;;;17.20;50.27;100546.02;108914;1277;22664;-90
2022/06/14 09:44:26;;;;;;;1.10;0.90;;;;;;;17.08;49.98;100555.14;109062;1279;23827;-92
2022/06/14 09:47:27;;;;;;;4.00;1.30;;;;;;;16.88;50.09;100558.61;109509;1273;22554;-93
2022/06/14 09:50:02;;;;;;;5.60;1.20;;;;;;;16.68;50.51;100558.00;109546;1273;22561;-93
2022/06/14 09:52:30;;;;;;;;;;;;;;;16.61;51.08;100558.59;109409;1273;22540;-92
2022/06/14 09:55:29;;;;;;;2.30;1.00;;;;;;;16.56;51.37;100561.59;108087;1273;22582;-91
2022/06/14 09:58:09;;;;;;;2.70;1.10;;;;;;;16.55;51.51;100559.81;108028;1273;22595;-94
2022/06/14 10:00:52;;;;;;;1.60;0.90;;;;;;;16.54;51.62;100559.52;107894;1273;25489;-93
2022/06/14 10:03:31;;;;;;;1.90;1.10;;;;;;;16.50;51.30;100560.55;107753;1273;23179;-94
2022/06/14 10:06:24;;;;;;;2.40;1.10;;;;;;;16.46;51.64;100558.34;107990;1273;25524;-92
2022/06/14 10:09:00;;;;;;;2.40;1.00;;;;;;;16.58;52.02;100557.26;107813;1273;22556;-94
2022/06/14 10:11:48;;;;;;;2.70;0.90;;;;;;;16.95;51.84;100556.08;107018;1279;24269;-92
2022/06/14 10:14:42;;;;;;;4.50;1.40;;;;;;;17.31;51.57;100545.64;107011;1279;22750;-93
2022/06/14 10:17:29;;;;;;;2.80;1.00;;;;;;;17.56;50.79;100540.85;106967;1279;22560;-93
2022/06/14 10:20:18;;;;;;;4.10;1.10;;;;;;;17.68;50.00;100542.20;107465;1279;23757;-93
2022/06/14 10:22:47;;;;;;;1.60;0.80;;;;;;;17.76;49.38;100538.36;107323;1279;24349;-93
2022/06/14 10:28:11;;;;;;;3.60;1.20;;;;;;;17.71;48.86;100537.83;108303;1278;22503;-94
2022/06/14 10:29:08;;;;;;;1.90;1.00;;;;;;;17.59;49.52;100531.67;107809;1279;22698;-91
2022/06/14 10:32:19;;;;;;;2.30;0.90;;;;;;;17.44;49.30;100539.31;107130;1273;24316;-91
2022/06/14 10:35:05;;;;;;;2.20;1.10;;;;;;;17.21;49.53;100534.27;108458;1273;22637;-92
2022/06/14 10:38:06;;;;;;;3.50;1.00;;;;;;;17.02;50.16;100546.42;107682;1273;22978;-92
2022/06/14 10:41:31;;;;;;;2.60;1.00;;;;;;;16.90;51.04;100551.25;107827;1273;25373;-92
2022/06/14 10:44:25;;;;;;;5.30;1.40;;;;;;;16.73;51.54;100562.14;107409;1279;22849;-92
2022/06/14 10:47:02;;;;;;;4.80;1.40;;;;;;;16.54;52.22;100559.88;108153;1279;22883;-92
2022/06/14 10:49:45;;;;;;;2.30;1.30;;;;;;;16.49;52.84;100560.17;109538;1273;22504;-91
2022/06/14 10:52:36;;;;;;;4.10;1.00;;;;;;;16.51;52.98;100557.48;109463;1272;22944;-92
2022/06/14 10:55:12;;;;;;;3.50;1.10;;;;;;;16.56;52.79;100549.48;109014;1273;22581;-93
2022/06/14 10:58:01;;;;;;;3.40;1.10;;;;;;;16.67;52.54;100547.38;109466;1273;22523;-91
2022/06/14 11:01:07;;;;;;;4.40;1.00;;;;;;;16.78;52.74;100547.91;109812;1273;22944;-88
2022/06/14 11:04:18;;;;;;;3.30;1.00;;;;;;;16.81;52.33;100550.28;109429;1279;22739;-92
2022/06/14 11:07:17;;;;;;;2.50;1.10;;;;;;;16.89;52.42;100551.09;108782;1279;22542;-93
2022/06/14 11:10:06;;;;;;;3.10;1.10;;;;;;;17.07;52.30;100552.69;106757;1296;22560;-92
2022/06/14 11:12:46;;;;;;;2.40;0.90;;;;;;;17.23;51.80;100551.27;105718;1296;22593;-91
2022/06/14 11:15:56;;;;;;;3.30;0.90;;;;;;;17.42;51.23;100546.52;106573;1296;22825;-91
2022/06/14 11:18:58;;;;;;;3.80;1.00;;;;;;;17.40;51.07;100547.64;106267;1296;23303;-89
2022/06/14 11:21:34;;;;;;;2.70;0.90;;;;;;;17.44;50.93;100547.85;105469;1296;24242;-91
2022/06/14 11:24:19;;;;;;;2.10;1.00;;;;;;;17.58;50.25;100545.79;106496;1296;22613;-92
2022/06/14 11:29:50;;;;;;;1.80;0.80;;;;;;;17.62;49.96;100541.53;108800;1273;22559;-91
2022/06/14 11:32:37;;;;;;;3.00;1.00;;;;;;;17.76;49.25;100548.31;108308;1274;22634;-92
2022/06/14 11:35:14;;;;;;;1.60;0.70;;;;;;;17.78;47.74;100545.60;109129;1274;24256;-90
2022/06/14 11:38:13;;;;;;;2.00;1.10;;;;;;;17.71;47.65;100543.37;108047;1274;22756;-92
2022/06/14 11:40:53;;;;;;;1.40;1.00;;;;;;;17.56;47.68;100549.41;107983;1276;22705;-92
2022/06/14 11:43:20;;;;;;;2.80;1.20;;;;;;;17.46;47.61;100557.41;108073;1273;22553;-92
2022/06/14 11:46:04;;;;;;;4.20;1.00;;;;;;;17.36;47.95;100556.17;108022;1274;22668;-93
2022/06/14 11:48:58;;;;;;;3.40;1.00;;;;;;;17.28;48.11;100554.83;108949;1274;22556;-92
2022/06/14 11:51:42;;;;;;;2.00;0.80;;;;;;;17.25;47.58;100557.41;108347;1274;22564;-90
2022/06/14 11:54:09;;;;;;;2.20;1.10;;;;;;;17.27;47.39;100556.46;108131;1274;22619;-91
2022/06/14 11:57:02;;;;;;;2.80;1.40;;;;;;;17.35;47.13;100556.91;108336;1274;22539;-91
2022/06/14 12:00:01;;;;;;;4.50;1.00;;;;;;;17.69;46.69;100553.92;108932;1273;22529;-90
2022/06/14 12:03:05;;;;;;;2.60;1.10;;;;;;;18.19;46.05;100553.34;108881;1273;23371;-90
2022/06/14 12:06:02;;;;;;;7.10;1.30;;;;;;;18.58;46.28;100557.02;108008;1273;24263;-87
2022/06/14 12:08:54;;;;;;;5.50;1.00;;;;;;;19.02;44.66;100547.94;107777;1273;25274;-90
2022/06/14 12:11:34;;;;;;;4.20;1.40;;;;;;;19.00;43.63;100550.73;107322;1273;22759;-91
2022/06/14 12:14:20;;;;;;;1.70;1.00;;;;;;;18.69;43.64;100559.10;107271;1274;24214;-90
2022/06/14 12:16:58;;;;;;;2.80;1.00;;;;;;;18.48;43.78;100562.23;107728;1274;24253;-90
2022/06/14 12:19:31;;;;;;;4.60;1.20;;;;;;;18.20;44.03;100574.34;107157;1274;22610;-92
2022/06/14 12:22:34;;;;;;;4.00;1.10;;;;;;;17.99;44.84;100570.64;105855;1282;22538;-79
2022/06/14 12:28:23;;;;;;;3.40;1.40;;;;;;;17.73;45.44;100578.39;106649;1281;25416;-91
2022/06/14 12:30:56;;;;;;;5.70;1.50;;;;;;;17.56;46.05;100581.83;108339;1281;22650;-91
2022/06/14 12:33:32;;;;;;;3.60;1.20;;;;;;;17.54;46.52;100588.84;108203;1284;22553;-91
2022/06/14 12:36:29;;;;;;;9.40;1.50;;;;;;;17.46;46.98;100587.13;108652;1281;22554;-90
2022/06/14 12:39:03;;;;;;;3.30;1.30;;;;;;;17.48;47.45;100588.15;107432;1281;22757;-90
2022/06/14 12:41:37;;;;;;;3.00;1.60;;;;;;;17.47;47.54;100584.99;108887;1274;22538;-90
2022/06/14 12:44:26;;;;;;;3.10;1.30;;;;;;;17.45;47.84;100589.13;109086;1276;22550;-91